createdAt,value
2019-05-12T00:00:20.251Z,1016.12
2019-05-12T00:01:20.274Z,1016.11
2019-05-12T00:02:20.232Z,1016.17
2019-05-12T00:03:20.229Z,1016.17
2019-05-12T00:04:20.220Z,1016.15
2019-05-12T00:05:20.294Z,1016.14
2019-05-12T00:06:20.208Z,1016.19
2019-05-12T00:07:20.202Z,1016.19
2019-05-12T00:08:20.195Z,1016.18
2019-05-12T00:09:20.190Z,1016.20
2019-05-12T00:10:20.181Z,1016.17
2019-05-12T00:11:20.175Z,1016.19
2019-05-12T00:12:20.168Z,1016.23
2019-05-12T00:13:20.163Z,1016.26
2019-05-12T00:14:20.159Z,1016.29
2019-05-12T00:15:20.157Z,1016.30
2019-05-12T00:16:20.144Z,1016.29
2019-05-12T00:17:20.141Z,1016.33
2019-05-12T00:18:20.130Z,1016.32
2019-05-12T00:19:20.123Z,1016.32
2019-05-12T00:20:20.117Z,1016.31
2019-05-12T00:21:20.114Z,1016.35
2019-05-12T00:22:20.104Z,1016.38
2019-05-12T00:23:27.433Z,1016.38
2019-05-12T00:24:20.093Z,1016.36
2019-05-12T00:25:20.086Z,1016.37
2019-05-12T00:26:20.079Z,1016.37
2019-05-12T00:27:20.072Z,1016.40
2019-05-12T00:28:20.065Z,1016.39
2019-05-12T00:29:20.058Z,1016.40
2019-05-12T00:30:20.051Z,1016.42
2019-05-12T00:31:20.046Z,1016.43
2019-05-12T00:32:20.038Z,1016.40
2019-05-12T00:33:20.034Z,1016.37
2019-05-12T00:34:20.026Z,1016.38
2019-05-12T00:35:20.020Z,1016.34
2019-05-12T00:36:20.012Z,1016.34
2019-05-12T00:37:20.007Z,1016.36
2019-05-12T00:38:19.998Z,1016.32
2019-05-12T00:39:19.994Z,1016.39
2019-05-12T00:40:19.987Z,1016.39
2019-05-12T00:41:19.980Z,1016.41
2019-05-12T00:42:19.972Z,1016.41
2019-05-12T00:43:19.969Z,1016.44
2019-05-12T00:44:19.962Z,1016.49
2019-05-12T00:45:19.955Z,1016.50
2019-05-12T00:46:19.945Z,1016.54
2019-05-12T00:47:19.940Z,1016.54
2019-05-12T00:48:19.934Z,1016.54
2019-05-12T00:49:19.927Z,1016.55
2019-05-12T00:50:19.919Z,1016.56
2019-05-12T00:51:19.912Z,1016.56
2019-05-12T00:52:19.906Z,1016.58
2019-05-12T00:53:19.899Z,1016.61
2019-05-12T00:54:19.901Z,1016.64
2019-05-12T00:55:19.886Z,1016.67
2019-05-12T00:56:19.879Z,1016.67
2019-05-12T00:57:19.871Z,1016.71
2019-05-12T00:58:19.884Z,1016.70
2019-05-12T00:59:19.857Z,1016.72
2019-05-12T01:00:19.851Z,1016.72
2019-05-12T01:01:19.845Z,1016.71
2019-05-12T01:02:19.838Z,1016.72
2019-05-12T01:03:19.829Z,1016.72
2019-05-12T01:04:19.823Z,1016.71
2019-05-12T01:05:19.818Z,1016.76
2019-05-12T01:06:19.817Z,1016.74
2019-05-12T01:07:19.804Z,1016.77
2019-05-12T01:08:19.800Z,1016.77
2019-05-12T01:09:19.791Z,1016.78
2019-05-12T01:10:19.783Z,1016.78
2019-05-12T01:11:19.778Z,1016.75
2019-05-12T01:12:19.771Z,1016.74
2019-05-12T01:13:19.762Z,1016.75
2019-05-12T01:14:19.756Z,1016.77
2019-05-12T01:15:19.754Z,1016.75
2019-05-12T01:16:19.741Z,1016.73
2019-05-12T01:17:19.736Z,1016.76
2019-05-12T01:18:19.727Z,1016.79
2019-05-12T01:19:19.721Z,1016.80
2019-05-12T01:20:19.717Z,1016.79
2019-05-12T01:21:19.709Z,1016.82
2019-05-12T01:22:19.701Z,1016.81
2019-05-12T01:23:23.208Z,1016.82
2019-05-12T01:24:19.689Z,1016.88
2019-05-12T01:25:19.681Z,1016.88
2019-05-12T01:26:19.674Z,1016.87
2019-05-12T01:27:19.665Z,1016.90
2019-05-12T01:28:19.660Z,1016.89
2019-05-12T01:29:19.653Z,1016.94
2019-05-12T01:30:19.647Z,1016.92
2019-05-12T01:31:19.638Z,1016.93
2019-05-12T01:32:19.631Z,1016.98
2019-05-12T01:33:19.629Z,1017.04
2019-05-12T01:34:19.617Z,1017.05
2019-05-12T01:35:19.611Z,1017.09
2019-05-12T01:36:19.603Z,1017.07
2019-05-12T01:37:19.622Z,1017.11
2019-05-12T01:38:19.589Z,1017.12
2019-05-12T01:39:19.583Z,1017.13
2019-05-12T01:40:19.577Z,1017.15
2019-05-12T01:41:19.570Z,1017.18
2019-05-12T01:42:19.562Z,1017.22
2019-05-12T01:43:21.221Z,1017.20
2019-05-12T01:44:19.555Z,1017.21
2019-05-12T01:45:19.543Z,1017.21
2019-05-12T01:46:19.534Z,1017.25
2019-05-12T01:47:19.528Z,1017.26
2019-05-12T01:48:19.522Z,1017.24
2019-05-12T01:49:19.514Z,1017.29
2019-05-12T01:50:19.510Z,1017.29
2019-05-12T01:51:19.499Z,1017.26
2019-05-12T01:52:19.519Z,1017.29
2019-05-12T01:53:19.485Z,1017.34
2019-05-12T01:54:19.479Z,1017.34
2019-05-12T01:55:19.472Z,1017.35
2019-05-12T01:56:19.466Z,1017.36
2019-05-12T01:57:19.458Z,1017.37
2019-05-12T01:58:19.672Z,1017.39
2019-05-12T01:59:19.444Z,1017.35
2019-05-12T02:00:19.438Z,1017.43
2019-05-12T02:01:19.432Z,1017.38
2019-05-12T02:02:19.423Z,1017.45
2019-05-12T02:03:19.420Z,1017.42
2019-05-12T02:04:19.415Z,1017.47
2019-05-12T02:05:19.405Z,1017.45
2019-05-12T02:06:19.400Z,1017.48
2019-05-12T02:07:19.391Z,1017.47
2019-05-12T02:08:19.384Z,1017.49
2019-05-12T02:09:19.376Z,1017.54
2019-05-12T02:10:19.369Z,1017.57
2019-05-12T02:11:19.362Z,1017.55
2019-05-12T02:12:19.357Z,1017.59
2019-05-12T02:13:19.349Z,1017.62
2019-05-12T02:14:19.342Z,1017.65
2019-05-12T02:15:19.335Z,1017.62
2019-05-12T02:16:19.328Z,1017.68
2019-05-12T02:17:19.323Z,1017.69
2019-05-12T02:18:19.314Z,1017.72
2019-05-12T02:19:19.309Z,1017.80
2019-05-12T02:20:19.302Z,1017.76
2019-05-12T02:21:19.296Z,1017.79
2019-05-12T02:22:19.287Z,1017.81
2019-05-12T02:23:19.280Z,1017.77
2019-05-12T02:24:26.711Z,1017.78
2019-05-12T02:25:19.270Z,1017.81
2019-05-12T02:26:19.261Z,1017.77
2019-05-12T02:27:19.253Z,1017.83
2019-05-12T02:28:19.247Z,1017.77
2019-05-12T02:29:19.239Z,1017.81
2019-05-12T02:30:20.278Z,1017.79
2019-05-12T02:31:20.622Z,1017.80
2019-05-12T02:32:19.219Z,1017.77
2019-05-12T02:33:19.223Z,1017.83
2019-05-12T02:34:19.206Z,1017.86
2019-05-12T02:35:19.199Z,1017.83
2019-05-12T02:36:19.192Z,1017.86
2019-05-12T02:37:19.185Z,1017.89
2019-05-12T02:38:19.179Z,1017.87
2019-05-12T02:39:19.172Z,1017.93
2019-05-12T02:40:19.165Z,1017.94
2019-05-12T02:41:19.158Z,1017.96
2019-05-12T02:42:19.154Z,1018.01
2019-05-12T02:43:19.145Z,1017.92
2019-05-12T02:44:19.137Z,1017.95
2019-05-12T02:45:19.132Z,1017.95
2019-05-12T02:46:19.124Z,1017.97
2019-05-12T02:47:19.118Z,1017.99
2019-05-12T02:48:19.113Z,1018.04
2019-05-12T02:49:19.115Z,1018.09
2019-05-12T02:50:19.097Z,1018.10
2019-05-12T02:51:19.089Z,1018.08
2019-05-12T02:52:19.082Z,1018.10
2019-05-12T02:53:19.076Z,1018.11
2019-05-12T02:54:19.071Z,1018.10
2019-05-12T02:55:19.063Z,1018.16
2019-05-12T02:56:19.057Z,1018.15
2019-05-12T02:57:19.048Z,1018.14
2019-05-12T02:58:19.047Z,1018.16
2019-05-12T02:59:19.036Z,1018.16
2019-05-12T03:00:19.028Z,1018.19
2019-05-12T03:01:19.022Z,1018.20
2019-05-12T03:02:19.015Z,1018.22
2019-05-12T03:03:19.012Z,1018.29
2019-05-12T03:04:19.001Z,1018.30
2019-05-12T03:05:18.994Z,1018.30
2019-05-12T03:06:18.989Z,1018.33
2019-05-12T03:07:18.980Z,1018.35
2019-05-12T03:08:18.973Z,1018.37
2019-05-12T03:09:18.968Z,1018.42
2019-05-12T03:10:18.963Z,1018.42
2019-05-12T03:11:18.955Z,1018.41
2019-05-12T03:12:18.945Z,1018.44
2019-05-12T03:13:18.939Z,1018.45
2019-05-12T03:14:18.933Z,1018.44
2019-05-12T03:15:18.926Z,1018.46
2019-05-12T03:16:18.921Z,1018.47
2019-05-12T03:17:18.912Z,1018.46
2019-05-12T03:18:18.907Z,1018.50
2019-05-12T03:19:18.897Z,1018.47
2019-05-12T03:20:18.892Z,1018.46
2019-05-12T03:21:18.886Z,1018.49
2019-05-12T03:22:18.876Z,1018.49
2019-05-12T03:23:19.503Z,1018.54
2019-05-12T03:24:18.869Z,1018.56
2019-05-12T03:25:24.640Z,1018.56
2019-05-12T03:26:18.850Z,1018.62
2019-05-12T03:27:18.842Z,1018.54
2019-05-12T03:28:18.837Z,1018.59
2019-05-12T03:29:18.831Z,1018.55
2019-05-12T03:30:19.848Z,1018.59
2019-05-12T03:31:25.269Z,1018.57
2019-05-12T03:32:18.838Z,1018.59
2019-05-12T03:33:20.069Z,1018.61
2019-05-12T03:34:20.455Z,1018.64
2019-05-12T03:35:18.831Z,1018.64
2019-05-12T03:36:18.854Z,1018.66
2019-05-12T03:37:18.855Z,1018.69
2019-05-12T03:38:18.769Z,1018.72
2019-05-12T03:39:18.766Z,1018.72
2019-05-12T03:40:18.754Z,1018.72
2019-05-12T03:41:18.747Z,1018.74
2019-05-12T03:42:18.742Z,1018.80
2019-05-12T03:43:18.737Z,1018.74
2019-05-12T03:44:18.728Z,1018.77
2019-05-12T03:45:18.721Z,1018.80
2019-05-12T03:46:18.714Z,1018.82
2019-05-12T03:47:18.707Z,1018.80
2019-05-12T03:48:18.702Z,1018.83
2019-05-12T03:49:18.694Z,1018.85
2019-05-12T03:50:18.688Z,1018.83
2019-05-12T03:51:18.681Z,1018.84
2019-05-12T03:52:18.674Z,1018.88
2019-05-12T03:53:18.671Z,1018.92
2019-05-12T03:54:18.668Z,1018.90
2019-05-12T03:55:34.362Z,1018.92
2019-05-12T03:56:18.650Z,1018.92
2019-05-12T03:57:18.642Z,1018.95
2019-05-12T03:58:18.635Z,1018.95
2019-05-12T03:59:18.635Z,1018.98
2019-05-12T04:00:18.624Z,1018.99
2019-05-12T04:01:18.613Z,1019.00
2019-05-12T04:02:18.609Z,1019.02
2019-05-12T04:03:18.603Z,1019.05
2019-05-12T04:04:18.596Z,1019.11
2019-05-12T04:05:18.588Z,1019.09
2019-05-12T04:06:18.587Z,1019.14
2019-05-12T04:07:18.574Z,1019.14
2019-05-12T04:08:18.569Z,1019.16
2019-05-12T04:09:18.573Z,1019.22
2019-05-12T04:10:18.554Z,1019.20
2019-05-12T04:11:18.551Z,1019.20
2019-05-12T04:12:18.540Z,1019.21
2019-05-12T04:13:18.535Z,1019.18
2019-05-12T04:14:18.527Z,1019.22
2019-05-12T04:15:18.530Z,1019.22
2019-05-12T04:16:18.514Z,1019.25
2019-05-12T04:17:18.511Z,1019.30
2019-05-12T04:18:18.503Z,1019.29
2019-05-12T04:19:18.496Z,1019.33
2019-05-12T04:20:18.492Z,1019.37
2019-05-12T04:21:18.483Z,1019.33
2019-05-12T04:22:18.479Z,1019.35
2019-05-12T04:23:18.474Z,1019.43
2019-05-12T04:24:18.463Z,1019.46
2019-05-12T04:25:18.454Z,1019.46
2019-05-12T04:26:18.458Z,1019.44
2019-05-12T04:27:18.453Z,1019.50
2019-05-12T04:28:18.439Z,1019.50
2019-05-12T04:29:18.429Z,1019.52
2019-05-12T04:30:18.420Z,1019.55
2019-05-12T04:31:18.415Z,1019.59
2019-05-12T04:32:18.415Z,1019.57
2019-05-12T04:33:18.402Z,1019.60
2019-05-12T04:34:19.337Z,1019.60
2019-05-12T04:35:18.386Z,1019.61
2019-05-12T04:36:18.379Z,1019.63
2019-05-12T04:37:18.374Z,1019.66
2019-05-12T04:38:18.369Z,1019.67
2019-05-12T04:39:18.360Z,1019.67
2019-05-12T04:40:18.354Z,1019.65
2019-05-12T04:41:19.988Z,1019.69
2019-05-12T04:42:18.341Z,1019.68
2019-05-12T04:43:18.338Z,1019.69
2019-05-12T04:44:18.329Z,1019.70
2019-05-12T04:45:18.322Z,1019.72
2019-05-12T04:46:18.320Z,1019.73
2019-05-12T04:47:18.309Z,1019.75
2019-05-12T04:48:21.274Z,1019.74
2019-05-12T04:49:18.296Z,1019.80
2019-05-12T04:50:18.295Z,1019.79
2019-05-12T04:51:18.285Z,1019.81
2019-05-12T04:52:18.276Z,1019.88
2019-05-12T04:53:18.270Z,1019.87
2019-05-12T04:54:18.263Z,1019.90
2019-05-12T04:55:18.255Z,1019.93
2019-05-12T04:56:20.569Z,1019.93
2019-05-12T04:57:20.957Z,1019.94
2019-05-12T04:58:18.239Z,1019.97
2019-05-12T04:59:18.231Z,1020.03
2019-05-12T05:00:18.223Z,1020.06
2019-05-12T05:01:18.217Z,1020.07
2019-05-12T05:02:18.211Z,1020.11
2019-05-12T05:03:18.203Z,1020.11
2019-05-12T05:04:18.197Z,1020.18
2019-05-12T05:05:18.191Z,1020.23
2019-05-12T05:06:18.184Z,1020.22
2019-05-12T05:07:18.178Z,1020.21
2019-05-12T05:08:19.763Z,1020.24
2019-05-12T05:09:18.166Z,1020.28
2019-05-12T05:10:18.158Z,1020.28
2019-05-12T05:11:18.153Z,1020.28
2019-05-12T05:12:18.146Z,1020.30
2019-05-12T05:13:18.140Z,1020.33
2019-05-12T05:14:18.132Z,1020.40
2019-05-12T05:15:18.127Z,1020.43
2019-05-12T05:16:18.121Z,1020.41
2019-05-12T05:17:18.114Z,1020.40
2019-05-12T05:18:18.106Z,1020.42
2019-05-12T05:19:18.102Z,1020.43
2019-05-12T05:20:18.093Z,1020.44
2019-05-12T05:21:18.089Z,1020.43
2019-05-12T05:22:18.080Z,1020.45
2019-05-12T05:23:18.075Z,1020.49
2019-05-12T05:24:18.069Z,1020.43
2019-05-12T05:25:18.064Z,1020.42
2019-05-12T05:26:24.504Z,1020.45
2019-05-12T05:27:18.050Z,1020.46
2019-05-12T05:28:18.043Z,1020.45
2019-05-12T05:29:18.038Z,1020.51
2019-05-12T05:30:18.030Z,1020.51
2019-05-12T05:31:18.023Z,1020.56
2019-05-12T05:32:18.018Z,1020.55
2019-05-12T05:33:19.925Z,1020.60
2019-05-12T05:34:18.005Z,1020.59
2019-05-12T05:35:18.000Z,1020.60
2019-05-12T05:36:19.764Z,1020.61
2019-05-12T05:37:17.988Z,1020.60
2019-05-12T05:38:20.724Z,1020.66
2019-05-12T05:39:17.975Z,1020.68
2019-05-12T05:40:19.875Z,1020.67
2019-05-12T05:41:17.966Z,1020.69
2019-05-12T05:42:22.111Z,1020.71
2019-05-12T05:43:18.752Z,1020.72
2019-05-12T05:44:17.944Z,1020.74
2019-05-12T05:45:23.424Z,1020.77
2019-05-12T05:46:17.931Z,1020.79
2019-05-12T05:47:19.892Z,1020.80
2019-05-12T05:48:17.919Z,1020.83
2019-05-12T05:49:17.916Z,1020.91
2019-05-12T05:50:18.374Z,1020.93
2019-05-12T05:51:17.902Z,1020.95
2019-05-12T05:52:17.897Z,1020.98
2019-05-12T05:53:19.733Z,1021.05
2019-05-12T05:54:22.781Z,1021.01
2019-05-12T05:55:20.247Z,1020.95
2019-05-12T05:56:18.407Z,1020.96
2019-05-12T05:57:20.044Z,1020.94
2019-05-12T05:58:17.866Z,1020.94
2019-05-12T05:59:21.927Z,1020.98
2019-05-12T06:00:22.832Z,1020.99
2019-05-12T06:01:17.844Z,1021.01
2019-05-12T06:02:25.349Z,1021.05
2019-05-12T06:03:23.118Z,1021.01
2019-05-12T06:04:17.826Z,1021.04
2019-05-12T06:05:19.958Z,1021.05
2019-05-12T06:06:17.814Z,1021.00
2019-05-12T06:07:17.810Z,1021.01
2019-05-12T06:08:20.769Z,1021.00
2019-05-12T06:09:17.800Z,1021.03
2019-05-12T06:10:17.791Z,1021.06
2019-05-12T06:11:23.805Z,1021.11
2019-05-12T06:12:17.782Z,1021.12
2019-05-12T06:13:21.180Z,1021.12
2019-05-12T06:14:17.771Z,1021.15
2019-05-12T06:15:17.765Z,1021.12
2019-05-12T06:16:20.641Z,1021.10
2019-05-12T06:17:17.757Z,1021.04
2019-05-12T06:18:17.748Z,1021.02
2019-05-12T06:19:17.743Z,1021.09
2019-05-12T06:20:17.740Z,1021.09
2019-05-12T06:21:17.735Z,1021.13
2019-05-12T06:22:18.411Z,1021.20
2019-05-12T06:23:17.723Z,1021.23
2019-05-12T06:24:20.128Z,1021.21
2019-05-12T06:25:17.715Z,1021.28
2019-05-12T06:26:21.125Z,1021.29
2019-05-12T06:27:21.093Z,1021.30
2019-05-12T06:28:17.695Z,1021.27
2019-05-12T06:29:20.810Z,1021.27
2019-05-12T06:30:17.684Z,1021.33
2019-05-12T06:31:18.869Z,1021.32
2019-05-12T06:32:17.674Z,1021.31
2019-05-12T06:33:22.771Z,1021.33
2019-05-12T06:34:20.812Z,1021.33
2019-05-12T06:35:17.660Z,1021.37
2019-05-12T06:36:22.120Z,1021.31
2019-05-12T06:37:17.646Z,1021.38
2019-05-12T06:38:17.640Z,1021.36
2019-05-12T06:39:20.605Z,1021.41
2019-05-12T06:40:17.631Z,1021.37
2019-05-12T06:41:20.476Z,1021.41
2019-05-12T06:42:17.619Z,1021.45
2019-05-12T06:43:17.613Z,1021.48
2019-05-12T06:44:19.528Z,1021.48
2019-05-12T06:45:17.604Z,1021.48
2019-05-12T06:46:20.639Z,1021.47
2019-05-12T06:47:17.594Z,1021.54
2019-05-12T06:48:19.436Z,1021.52
2019-05-12T06:49:17.801Z,1021.54
2019-05-12T06:50:17.578Z,1021.54
2019-05-12T06:51:22.694Z,1021.58
2019-05-12T06:52:17.567Z,1021.63
2019-05-12T06:53:20.089Z,1021.61
2019-05-12T06:54:17.556Z,1021.68
2019-05-12T06:55:17.554Z,1021.73
2019-05-12T06:56:19.738Z,1021.76
2019-05-12T06:57:24.433Z,1021.80
2019-05-12T06:58:26.397Z,1021.78
2019-05-12T06:59:17.530Z,1021.84
2019-05-12T07:00:22.153Z,1021.81
2019-05-12T07:01:19.312Z,1021.89
2019-05-12T07:02:17.515Z,1021.89
2019-05-12T07:03:19.544Z,1021.93
2019-05-12T07:04:17.503Z,1021.97
2019-05-12T07:05:17.500Z,1021.91
2019-05-12T07:06:19.634Z,1021.91
2019-05-12T07:07:17.490Z,1021.91
2019-05-12T07:08:26.357Z,1021.92
2019-05-12T07:09:24.926Z,1021.90
2019-05-12T07:10:35.736Z,1021.86
2019-05-12T07:11:17.471Z,1021.91
2019-05-12T07:12:17.468Z,1021.93
2019-05-12T07:13:23.238Z,1021.91
2019-05-12T07:14:22.366Z,1021.89
2019-05-12T07:15:17.498Z,1021.94
2019-05-12T07:16:22.947Z,1022.03
2019-05-12T07:17:17.444Z,1022.11
2019-05-12T07:18:17.803Z,1022.07
2019-05-12T07:19:22.728Z,1022.18
2019-05-12T07:21:17.869Z,1022.17
2019-05-12T07:28:50.066Z,1022.23
2019-05-12T07:29:50.061Z,1022.21
2019-05-12T07:37:43.604Z,1022.05
2019-05-12T07:38:43.394Z,1022.06
2019-05-12T07:39:45.382Z,1022.06
2019-05-12T07:41:25.216Z,1022.15
2019-05-12T07:42:31.469Z,1022.14
2019-05-12T07:44:14.189Z,1022.13
2019-05-12T07:47:10.461Z,1022.40
2019-05-12T07:50:58.420Z,1022.77
2019-05-12T07:55:53.266Z,1023.42
2019-05-12T07:57:58.699Z,1023.48
2019-05-12T07:58:57.193Z,1022.75
2019-05-12T07:59:55.205Z,1023.46
2019-05-12T08:01:02.400Z,1023.38
2019-05-12T08:01:55.205Z,1022.92
2019-05-12T08:02:55.206Z,1023.33
2019-05-12T08:03:59.356Z,1023.35
2019-05-12T08:04:55.210Z,1023.33
2019-05-12T08:05:57.499Z,1023.40
2019-05-12T08:06:55.216Z,1023.53
2019-05-12T08:07:55.222Z,1023.47
2019-05-12T08:08:58.817Z,1023.24
2019-05-12T08:09:55.236Z,1022.40
2019-05-12T08:10:56.067Z,1022.44
2019-05-12T08:11:55.238Z,1022.42
2019-05-12T08:12:59.590Z,1022.41
2019-05-12T08:13:55.246Z,1022.46
2019-05-12T08:14:59.319Z,1022.40
2019-05-12T08:15:56.370Z,1022.38
2019-05-12T08:16:55.257Z,1023.24
2019-05-12T08:17:59.269Z,1022.44
2019-05-12T08:18:55.266Z,1022.41
2019-05-12T08:19:55.268Z,1022.43
2019-05-12T08:20:55.270Z,1022.43
2019-05-12T08:21:55.277Z,1022.92
2019-05-12T08:22:59.687Z,1022.56
2019-05-12T08:23:55.280Z,1022.55
2019-05-12T08:24:55.281Z,1022.57
2019-05-12T08:25:55.285Z,1022.92
2019-05-12T08:26:59.532Z,1022.87
2019-05-12T08:28:11.053Z,1022.50
2019-05-12T08:28:55.289Z,1022.53
2019-05-12T08:30:01.159Z,1022.53
2019-05-12T08:30:55.294Z,1022.56
2019-05-12T08:31:55.298Z,1022.60
2019-05-12T08:33:02.483Z,1022.52
2019-05-12T08:33:55.302Z,1022.51
2019-05-12T08:34:55.305Z,1022.49
2019-05-12T08:35:55.473Z,1022.52
2019-05-12T08:36:57.820Z,1022.53
2019-05-12T08:37:55.323Z,1022.56
2019-05-12T08:38:55.316Z,1022.52
2019-05-12T08:40:03.293Z,1022.51
2019-05-12T08:40:55.342Z,1022.47
2019-05-12T08:41:55.315Z,1022.45
2019-05-12T08:42:59.466Z,1022.42
2019-05-12T08:43:58.314Z,1022.40
2019-05-12T08:44:55.318Z,1022.85
2019-05-12T08:45:59.945Z,1022.92
2019-05-12T08:46:56.630Z,1022.94
2019-05-12T08:47:55.322Z,1022.98
2019-05-12T08:48:57.858Z,1022.53
2019-05-12T08:49:58.425Z,1022.57
2019-05-12T08:50:55.330Z,1023.03
2019-05-12T08:52:00.024Z,1023.05
2019-05-12T08:52:55.324Z,1023.11
2019-05-12T08:54:02.396Z,1023.07
2019-05-12T08:54:55.329Z,1022.78
2019-05-12T08:55:55.334Z,1022.73
2019-05-12T08:56:59.350Z,1023.22
2019-05-12T08:57:55.335Z,1022.78
2019-05-12T08:58:55.337Z,1022.66
2019-05-12T09:00:03.066Z,1022.70
2019-05-12T09:00:55.342Z,1022.72
2019-05-12T09:01:55.399Z,1023.25
2019-05-12T09:02:55.350Z,1023.21
2019-05-12T09:03:55.362Z,1023.22
2019-05-12T09:04:55.775Z,1023.22
2019-05-12T09:05:55.356Z,1023.24
2019-05-12T09:06:59.572Z,1023.19
2019-05-12T09:07:55.365Z,1023.21
2019-05-12T09:08:55.367Z,1023.24
2019-05-12T09:09:55.371Z,1023.24
2019-05-12T09:10:55.640Z,1023.20
2019-05-12T09:11:55.398Z,1023.23
2019-05-12T09:12:55.384Z,1023.25
2019-05-12T09:14:00.478Z,1023.25
2019-05-12T09:14:55.396Z,1023.28
2019-05-12T09:15:55.400Z,1023.30
2019-05-12T09:17:02.633Z,1023.38
2019-05-12T09:17:56.950Z,1023.42
2019-05-12T09:18:55.525Z,1023.01
2019-05-12T09:20:06.048Z,1023.20
2019-05-12T09:20:55.885Z,1022.80
2019-05-12T09:21:55.437Z,1022.83
2019-05-12T09:23:00.679Z,1022.81
2019-05-12T09:23:56.076Z,1022.86
2019-05-12T09:24:58.498Z,1023.44
2019-05-12T09:25:57.264Z,1023.41
2019-05-12T09:26:58.994Z,1023.45
2019-05-12T09:27:55.473Z,1023.50
2019-05-12T09:28:55.478Z,1022.86
2019-05-12T09:29:59.053Z,1022.86
2019-05-12T09:30:55.492Z,1022.82
2019-05-12T09:31:59.237Z,1022.76
2019-05-12T09:32:56.088Z,1023.40
2019-05-12T09:33:55.513Z,1023.54
2019-05-12T09:34:58.202Z,1022.99
2019-05-12T09:35:55.517Z,1023.55
2019-05-12T09:36:59.745Z,1023.67
2019-05-12T09:37:55.527Z,1023.07
2019-05-12T09:39:01.549Z,1022.96
2019-05-12T09:39:55.539Z,1023.08
2019-05-12T09:41:00.862Z,1023.09
2019-05-12T09:41:55.548Z,1023.01
2019-05-12T09:43:00.337Z,1023.00
2019-05-12T09:43:55.557Z,1023.00
2019-05-12T09:45:00.072Z,1023.58
2019-05-12T09:45:56.335Z,1023.56
2019-05-12T09:46:55.573Z,1023.67
2019-05-12T09:47:58.870Z,1023.11
2019-05-12T09:48:55.582Z,1023.05
2019-05-12T09:49:55.587Z,1023.66
2019-05-12T09:51:00.371Z,1023.17
2019-05-12T09:51:55.595Z,1023.15
2019-05-12T09:53:00.507Z,1023.61
2019-05-12T09:53:55.672Z,1023.58
2019-05-12T09:54:55.608Z,1023.64
2019-05-12T09:55:58.387Z,1023.12
2019-05-12T09:56:59.668Z,1023.11
2019-05-12T09:57:55.621Z,1023.28
2019-05-12T09:59:01.417Z,1023.63
2019-05-12T09:59:59.451Z,1023.38
2019-05-12T10:00:55.635Z,1023.66
2019-05-12T10:01:55.643Z,1023.51
2019-05-12T10:02:59.381Z,1023.71
2019-05-12T10:03:55.650Z,1023.79
2019-05-12T10:05:00.413Z,1023.91
2019-05-12T10:05:55.659Z,1023.18
2019-05-12T10:06:55.665Z,1023.12
2019-05-12T10:07:55.668Z,1023.08
2019-05-12T10:08:55.691Z,1023.07
2019-05-12T10:09:58.885Z,1023.35
2019-05-12T10:10:55.683Z,1023.17
2019-05-12T10:12:00.598Z,1023.66
2019-05-12T10:12:55.692Z,1023.73
2019-05-12T10:14:00.214Z,1023.72
2019-05-12T10:14:55.699Z,1023.72
2019-05-12T10:15:58.635Z,1023.71
2019-05-12T10:16:55.708Z,1023.20
2019-05-12T10:18:00.107Z,1023.85
2019-05-12T10:18:55.717Z,1023.85
2019-05-12T10:19:58.098Z,1023.23
2019-05-12T10:20:55.725Z,1023.20
2019-05-12T10:21:59.455Z,1023.27
2019-05-12T10:22:55.736Z,1023.72
2019-05-12T10:24:00.089Z,1023.22
2019-05-12T10:24:58.617Z,1023.12
2019-05-12T10:25:55.745Z,1023.22
2019-05-12T10:26:55.751Z,1023.15
2019-05-12T10:27:55.755Z,1023.11
2019-05-12T10:28:58.323Z,1023.81
2019-05-12T10:29:55.762Z,1023.75
2019-05-12T10:30:56.991Z,1023.84
2019-05-12T10:31:55.775Z,1023.77
2019-05-12T10:32:55.773Z,1023.73
2019-05-12T10:33:58.146Z,1023.78
2019-05-12T10:34:55.779Z,1023.75
2019-05-12T10:35:59.390Z,1023.79
2019-05-12T10:36:55.786Z,1023.80
2019-05-12T10:38:00.163Z,1023.81
2019-05-12T10:38:55.802Z,1023.76
2019-05-12T10:39:55.799Z,1023.84
2019-05-12T10:40:55.803Z,1023.80
2019-05-12T10:41:55.807Z,1023.84
2019-05-12T10:42:55.813Z,1023.86
2019-05-12T10:43:57.755Z,1023.57
2019-05-12T10:44:56.732Z,1023.83
2019-05-12T10:45:55.826Z,1023.22
2019-05-12T10:46:55.836Z,1023.23
2019-05-12T10:47:55.834Z,1023.24
2019-05-12T10:48:55.843Z,1023.24
2019-05-12T10:49:55.844Z,1023.23
2019-05-12T10:50:55.848Z,1023.28
2019-05-12T10:51:55.853Z,1023.24
2019-05-12T10:52:55.858Z,1023.23
2019-05-12T10:54:01.975Z,1023.15
2019-05-12T10:54:55.866Z,1023.14
2019-05-12T10:55:55.872Z,1023.43
2019-05-12T10:56:55.876Z,1023.59
2019-05-12T10:58:01.444Z,1023.15
2019-05-12T10:58:55.885Z,1023.35
2019-05-12T10:59:55.884Z,1023.21
2019-05-12T11:00:58.921Z,1023.67
2019-05-12T11:01:55.889Z,1023.23
2019-05-12T11:02:55.892Z,1023.64
2019-05-12T11:03:55.896Z,1023.66
2019-05-12T11:04:55.899Z,1023.60
2019-05-12T11:06:02.560Z,1023.63
2019-05-12T11:06:55.904Z,1023.49
2019-05-12T11:08:00.193Z,1023.41
2019-05-12T11:08:55.911Z,1023.35
2019-05-12T11:09:55.914Z,1023.25
2019-05-12T11:11:01.097Z,1023.23
2019-05-12T11:11:55.919Z,1023.19
2019-05-12T11:12:59.091Z,1023.30
2019-05-12T11:13:55.925Z,1023.27
2019-05-12T11:14:55.929Z,1023.15
2019-05-12T11:15:55.932Z,1023.11
2019-05-12T11:16:55.934Z,1023.11
2019-05-12T11:17:55.936Z,1023.11
2019-05-12T11:19:00.373Z,1023.16
2019-05-12T11:19:55.942Z,1023.13
2019-05-12T11:20:55.943Z,1023.14
2019-05-12T11:21:55.945Z,1023.13
2019-05-12T11:22:55.948Z,1023.05
2019-05-12T11:23:55.953Z,1023.07
2019-05-12T11:24:55.983Z,1023.13
2019-05-12T11:25:55.954Z,1023.09
2019-05-12T11:26:55.956Z,1023.15
2019-05-12T11:27:55.959Z,1023.12
2019-05-12T11:28:55.959Z,1023.12
2019-05-12T11:29:55.960Z,1023.11
2019-05-12T11:30:55.961Z,1023.20
2019-05-12T11:31:55.965Z,1023.23
2019-05-12T11:32:55.967Z,1023.29
2019-05-12T11:33:55.967Z,1023.24
2019-05-12T11:34:55.967Z,1023.21
2019-05-12T11:35:55.970Z,1023.16
2019-05-12T11:36:55.970Z,1023.19
2019-05-12T11:37:55.970Z,1023.11
2019-05-12T11:38:55.972Z,1023.16
2019-05-12T11:39:55.971Z,1023.11
2019-05-12T11:40:55.971Z,1023.14
2019-05-12T11:41:55.973Z,1023.05
2019-05-12T11:43:00.912Z,1023.11
2019-05-12T11:43:55.983Z,1023.09
2019-05-12T11:44:55.974Z,1023.10
2019-05-12T11:45:55.977Z,1023.08
2019-05-12T11:46:55.978Z,1023.08
2019-05-12T11:47:59.211Z,1023.08
2019-05-12T11:48:55.977Z,1023.15
2019-05-12T11:49:58.483Z,1023.19
2019-05-12T11:50:55.977Z,1023.16
2019-05-12T11:51:55.980Z,1023.16
2019-05-12T11:52:55.977Z,1023.12
2019-05-12T11:53:55.980Z,1023.06
2019-05-12T11:54:55.979Z,1023.00
2019-05-12T11:55:55.980Z,1023.03
2019-05-12T11:56:55.983Z,1023.04
2019-05-12T11:58:00.427Z,1023.05
2019-05-12T11:58:55.979Z,1023.10
2019-05-12T12:00:01.985Z,1023.20
2019-05-12T12:00:58.789Z,1023.15
2019-05-12T12:01:56.201Z,1023.18
2019-05-12T12:02:55.981Z,1023.20
2019-05-12T12:03:55.981Z,1023.23
2019-05-12T12:04:55.979Z,1023.23
2019-05-12T12:05:55.982Z,1023.30
2019-05-12T12:06:55.982Z,1023.22
2019-05-12T12:07:56.242Z,1023.25
2019-05-12T12:08:55.981Z,1023.19
2019-05-12T12:09:59.320Z,1023.20
2019-05-12T12:10:55.981Z,1023.18
2019-05-12T12:12:02.483Z,1023.16
2019-05-12T12:12:55.981Z,1023.22
2019-05-12T12:14:00.245Z,1023.27
2019-05-12T12:14:55.984Z,1023.22
2019-05-12T12:16:00.659Z,1023.16
2019-05-12T12:16:55.982Z,1023.13
2019-05-12T12:17:56.040Z,1023.16
2019-05-12T12:19:02.140Z,1023.13
2019-05-12T12:19:55.986Z,1023.18
2019-05-12T12:21:02.900Z,1023.22
2019-05-12T12:21:55.982Z,1023.18
2019-05-12T12:23:00.121Z,1023.20
2019-05-12T12:23:55.982Z,1023.22
2019-05-12T12:24:55.984Z,1023.20
2019-05-12T12:25:55.984Z,1023.17
2019-05-12T12:26:55.983Z,1023.21
2019-05-12T12:27:55.982Z,1023.24
2019-05-12T12:28:55.983Z,1023.23
2019-05-12T12:29:55.982Z,1023.22
2019-05-12T12:31:00.282Z,1023.28